Time;durP1;ratioP1;P1;durP2;ratioP2;P2;SDS_P1;SDS_P2;PMS_P1;PMS_P2;Temp;Humidity;BMP_temperature;BMP_pressure;BME280_temperature;BME280_humidity;BME280_pressure;Samples;Min_cycle;Max_cycle;Signal;HPM_P1;HPM_P2
2022/09/19 00:00:41;;;;;;;22.55;4.93;;;25.70;99.90;;;;;;4931562;29;20056;-54
2022/09/19 00:03:07;;;;;;;19.40;5.28;;;25.70;99.90;;;;;;4923056;29;20053;-54
2022/09/19 00:05:33;;;;;;;23.67;5.90;;;25.70;99.90;;;;;;4918342;29;20462;-53
2022/09/19 00:07:59;;;;;;;15.05;4.10;;;25.70;99.90;;;;;;4917196;29;20028;-53
2022/09/19 00:10:27;;;;;;;18.63;4.70;;;25.70;99.90;;;;;;4915887;29;20350;-53
2022/09/19 00:12:55;;;;;;;23.98;4.63;;;25.70;99.90;;;;;;4918739;29;20059;-53
2022/09/19 00:15:22;;;;;;;;;;;25.70;99.90;;;;;;4919530;29;20024;-54
2022/09/19 00:17:49;;;;;;;21.00;4.00;;;25.60;99.90;;;;;;4915724;29;19914;-53
2022/09/19 00:20:16;;;;;;;22.17;4.93;;;25.60;99.90;;;;;;4914349;29;20044;-54
2022/09/19 00:24:45;;;;;;;18.67;5.57;;;25.60;99.90;;;;;;4921046;29;20048;-53
2022/09/19 00:25:28;;;;;;;26.63;4.95;;;25.60;99.90;;;;;;4929394;29;20036;-52
2022/09/19 00:27:54;;;;;;;30.63;6.82;;;25.60;99.90;;;;;;4931188;29;20491;-53
2022/09/19 00:30:20;;;;;;;27.88;6.65;;;25.50;99.90;;;;;;4927858;29;20036;-52
2022/09/19 00:32:46;;;;;;;22.23;4.40;;;25.50;99.90;;;;;;4925637;29;20064;-50
2022/09/19 00:35:12;;;;;;;21.80;4.75;;;25.50;99.90;;;;;;4916500;29;20032;-51
2022/09/19 00:37:38;;;;;;;19.73;3.95;;;25.50;99.90;;;;;;4917477;29;20013;-50
2022/09/19 00:40:05;;;;;;;17.00;3.97;;;25.50;99.90;;;;;;4930710;29;20042;-50
2022/09/19 00:42:30;;;;;;;27.35;4.97;;;25.50;99.90;;;;;;4915742;29;20124;-50
2022/09/19 00:45:01;;;;;;;27.38;5.78;;;25.40;99.90;;;;;;4918049;29;20159;-49
2022/09/19 00:47:35;;;;;;;22.63;4.43;;;25.40;99.90;;;;;;4915014;29;20115;-50
2022/09/19 00:50:03;;;;;;;23.58;4.68;;;25.40;99.90;;;;;;4926806;29;20030;-50
2022/09/19 00:52:34;;;;;;;17.98;4.70;;;25.40;99.90;;;;;;4914973;29;20172;-52
2022/09/19 00:55:01;;;;;;;18.05;4.72;;;25.40;99.90;;;;;;4918719;29;20107;-53
2022/09/19 00:57:40;;;;;;;32.88;5.50;;;25.30;99.90;;;;;;4924705;29;20064;-50
2022/09/19 01:00:06;;;;;;;21.83;4.25;;;25.30;99.90;;;;;;4931314;23;20055;-54
2022/09/19 01:02:32;;;;;;;19.80;4.70;;;25.30;99.90;;;;;;4931957;29;20039;-56
2022/09/19 01:05:01;;;;;;;21.17;4.75;;;25.30;99.90;;;;;;4928323;29;20055;-55
2022/09/19 01:07:44;;;;;;;22.23;4.82;;;25.30;99.90;;;;;;4930208;29;20099;-55
2022/09/19 01:10:13;;;;;;;24.60;4.93;;;25.30;99.90;;;;;;4932051;29;20518;-56
2022/09/19 01:12:51;;;;;;;23.60;4.63;;;25.30;99.90;;;;;;4932450;29;20387;-56
2022/09/19 01:15:41;;;;;;;23.85;4.80;;;25.30;99.90;;;;;;4931732;29;20039;-56
2022/09/19 01:18:09;;;;;;;21.55;4.38;;;25.30;99.90;;;;;;4930571;29;20024;-53
2022/09/19 01:20:56;;;;;;;23.92;4.93;;;25.30;99.90;;;;;;4928697;29;20543;-56
2022/09/19 01:23:57;;;;;;;17.38;5.38;;;25.30;99.90;;;;;;4926889;29;21448;-55
2022/09/19 01:26:44;;;;;;;21.45;4.70;;;25.30;99.90;;;;;;4909621;29;20044;-55
2022/09/19 01:29:22;;;;;;;20.25;4.40;;;25.30;99.90;;;;;;4929584;29;20022;-61
2022/09/19 01:31:57;;;;;;;22.58;5.65;;;25.30;99.90;;;;;;4931716;29;20566;-56
2022/09/19 01:34:32;;;;;;;17.20;4.03;;;25.30;99.90;;;;;;4928441;29;20035;-53
2022/09/19 01:37:09;;;;;;;16.48;4.45;;;25.30;99.90;;;;;;4932043;29;20028;-53
2022/09/19 01:39:38;;;;;;;19.98;3.90;;;25.30;99.90;;;;;;4930984;29;20159;-56
2022/09/19 01:42:04;;;;;;;22.20;4.10;;;25.30;99.90;;;;;;4930908;29;20047;-53
2022/09/19 01:44:32;;;;;;;22.88;4.43;;;25.30;99.90;;;;;;4931606;29;20763;-53
2022/09/19 01:47:36;;;;;;;25.92;5.05;;;25.30;99.90;;;;;;4931947;29;20031;-56
2022/09/19 01:50:23;;;;;;;16.77;3.90;;;25.20;99.90;;;;;;4931502;29;20032;-56
2022/09/19 01:52:55;;;;;;;18.35;3.90;;;25.30;99.90;;;;;;4931947;29;20523;-56
2022/09/19 01:55:33;;;;;;;23.58;5.32;;;25.30;99.90;;;;;;4931518;29;20036;-56
2022/09/19 01:58:35;;;;;;;17.52;4.43;;;25.30;99.90;;;;;;4932032;29;20487;-55
2022/09/19 02:01:07;;;;;;;17.83;4.07;;;25.30;99.90;;;;;;4932069;29;20384;-53
2022/09/19 02:03:48;;;;;;;24.50;4.63;;;25.30;99.90;;;;;;4931582;29;20032;-55
2022/09/19 02:06:22;;;;;;;19.48;4.50;;;25.30;99.90;;;;;;4930582;29;20043;-55
2022/09/19 02:09:20;;;;;;;18.23;3.53;;;25.30;99.90;;;;;;4929577;29;20051;-53
2022/09/19 02:11:46;;;;;;;20.73;4.85;;;25.20;99.90;;;;;;4907282;29;20488;-56
2022/09/19 02:14:17;;;;;;;14.27;3.75;;;25.20;99.90;;;;;;4931708;29;20043;-56
2022/09/19 02:17:03;;;;;;;18.55;3.90;;;25.20;99.90;;;;;;4934448;29;20063;-56
2022/09/19 02:19:53;;;;;;;19.40;3.97;;;25.20;99.90;;;;;;4935288;29;20031;-55
2022/09/19 02:22:31;;;;;;;16.30;3.33;;;25.20;99.90;;;;;;4935009;29;20047;-55
2022/09/19 02:25:02;;;;;;;16.45;3.65;;;25.20;99.90;;;;;;4935058;29;20031;-55
2022/09/19 02:28:04;;;;;;;14.63;5.10;;;25.20;99.90;;;;;;4935248;29;20503;-56
2022/09/19 02:30:31;;;;;;;12.88;3.60;;;25.20;99.90;;;;;;4924881;29;20055;-56
2022/09/19 02:32:57;;;;;;;20.38;4.07;;;25.20;99.90;;;;;;4935236;29;20024;-53
2022/09/19 02:35:36;;;;;;;15.52;3.88;;;25.30;99.90;;;;;;4934591;29;20502;-54
2022/09/19 02:38:14;;;;;;;11.32;3.17;;;25.30;99.90;;;;;;4935186;29;20056;-54
2022/09/19 02:40:56;;;;;;;25.73;4.18;;;25.30;99.90;;;;;;4934540;29;20033;-54
2022/09/19 02:43:48;;;;;;;18.55;4.18;;;25.30;99.90;;;;;;4933389;29;20043;-54
2022/09/19 02:46:30;;;;;;;14.02;3.10;;;25.30;99.90;;;;;;4934965;29;20114;-54
2022/09/19 02:49:05;;;;;;;17.80;3.72;;;25.30;99.90;;;;;;4934656;29;20388;-54
2022/09/19 02:51:43;;;;;;;13.88;3.60;;;25.30;99.90;;;;;;4934687;29;20036;-54
2022/09/19 02:54:11;;;;;;;;;;;25.30;99.90;;;;;;4933350;29;20529;-54
2022/09/19 02:56:41;;;;;;;15.77;3.38;;;25.30;99.90;;;;;;4931959;29;19950;-54
2022/09/19 02:59:21;;;;;;;16.83;3.25;;;25.30;99.90;;;;;;4934388;29;20483;-54
2022/09/19 03:01:53;;;;;;;12.88;3.67;;;25.30;99.90;;;;;;4934021;29;20071;-53
2022/09/19 03:04:25;;;;;;;14.63;3.03;;;25.40;99.90;;;;;;4934087;29;20038;-53
2022/09/19 03:07:07;;;;;;;12.15;3.22;;;25.30;99.90;;;;;;4933033;29;20038;-53
2022/09/19 03:09:34;;;;;;;15.68;4.13;;;25.40;99.90;;;;;;4934580;29;20028;-53
2022/09/19 03:12:24;;;;;;;12.52;4.13;;;25.40;99.90;;;;;;4933865;29;20050;-54
2022/09/19 03:14:55;;;;;;;18.90;3.88;;;25.30;99.90;;;;;;4934081;29;20383;-54
2022/09/19 03:17:28;;;;;;;13.30;3.47;;;25.40;99.90;;;;;;4933195;29;20115;-55
2022/09/19 03:19:56;;;;;;;12.35;3.42;;;25.40;99.90;;;;;;4916347;29;20436;-55
2022/09/19 03:22:22;;;;;;;;;;;25.40;99.90;;;;;;4918871;29;20050;-54
2022/09/19 03:24:48;;;;;;;14.68;3.38;;;25.40;99.90;;;;;;4928906;29;19914;-55
2022/09/19 03:27:14;;;;;;;16.08;3.97;;;25.50;99.90;;;;;;4928991;29;20024;-55
2022/09/19 03:29:39;;;;;;;13.93;3.90;;;25.50;99.90;;;;;;4935525;29;20031;-55
2022/09/19 03:32:05;;;;;;;10.93;3.20;;;25.40;99.90;;;;;;4936451;29;20622;-54
2022/09/19 03:34:32;;;;;;;9.23;2.90;;;25.40;99.90;;;;;;4936218;29;20122;-54
2022/09/19 03:36:59;;;;;;;11.80;3.72;;;25.40;99.90;;;;;;4936278;29;20039;-55
2022/09/19 03:39:25;;;;;;;20.48;3.92;;;25.40;99.90;;;;;;4934898;29;20043;-55
2022/09/19 03:41:51;;;;;;;17.05;4.05;;;25.50;99.90;;;;;;4934804;29;20051;-55
2022/09/19 03:44:19;;;;;;;11.50;3.45;;;25.40;99.90;;;;;;4936078;29;20075;-55
2022/09/19 03:46:46;;;;;;;11.80;3.45;;;25.50;99.90;;;;;;4935636;29;20472;-55
2022/09/19 03:49:12;;;;;;;;;;;25.50;99.90;;;;;;4936288;29;20032;-54
2022/09/19 03:51:38;;;;;;;18.70;4.13;;;25.50;99.90;;;;;;4936044;29;19907;-54
2022/09/19 03:54:05;;;;;;;19.85;11.30;;;25.40;99.90;;;;;;4934728;29;20039;-55
2022/09/19 03:56:31;;;;;;;16.05;5.07;;;25.50;99.90;;;;;;4935851;29;20031;-55
2022/09/19 03:58:57;;;;;;;15.73;3.92;;;25.50;99.90;;;;;;4935737;29;20027;-54
2022/09/19 04:01:22;;;;;;;12.90;3.25;;;25.50;99.90;;;;;;4935898;29;20051;-55
2022/09/19 04:03:49;;;;;;;10.43;3.85;;;25.50;99.90;;;;;;4935476;29;20032;-55
2022/09/19 04:06:16;;;;;;;16.65;4.03;;;25.50;99.90;;;;;;4935669;29;20032;-55
2022/09/19 04:08:41;;;;;;;14.93;3.97;;;25.50;99.90;;;;;;4935969;29;20028;-54
2022/09/19 04:11:09;;;;;;;16.35;3.45;;;25.50;99.90;;;;;;4934604;29;20359;-55
2022/09/19 04:13:35;;;;;;;17.10;3.88;;;25.50;99.90;;;;;;4935511;29;20031;-55
2022/09/19 04:16:02;;;;;;;14.63;4.05;;;25.50;99.90;;;;;;4935375;29;20036;-55
2022/09/19 04:18:28;;;;;;;19.83;4.03;;;25.50;99.90;;;;;;4935424;29;20051;-54
2022/09/19 04:20:55;;;;;;;12.48;3.67;;;25.50;99.90;;;;;;4935435;29;20420;-54
2022/09/19 04:23:25;;;;;;;15.13;3.85;;;25.50;99.90;;;;;;4935583;29;20314;-55
2022/09/19 04:25:50;;;;;;;12.25;3.35;;;25.50;99.90;;;;;;4935251;29;20122;-55
2022/09/19 04:28:17;;;;;;;18.35;3.85;;;25.50;99.90;;;;;;4933912;29;20119;-55
2022/09/19 04:30:43;;;;;;;20.63;5.00;;;25.40;99.90;;;;;;4934020;29;20506;-54
2022/09/19 04:33:11;;;;;;;14.38;3.75;;;25.40;99.90;;;;;;4935338;29;20034;-54
2022/09/19 04:35:38;;;;;;;16.50;3.60;;;25.40;99.90;;;;;;4935331;29;20451;-54
2022/09/19 04:38:11;;;;;;;14.25;4.90;;;25.40;99.90;;;;;;4949537;28;20036;-55
2022/09/19 04:40:41;;;;;;;12.07;3.88;;;25.40;99.90;;;;;;4935101;29;20036;-54
2022/09/19 04:43:11;;;;;;;18.77;4.00;;;25.40;99.90;;;;;;4935027;29;20031;-54
2022/09/19 04:45:39;;;;;;;11.45;3.58;;;25.40;99.90;;;;;;4935211;29;20027;-55
2022/09/19 04:48:06;;;;;;;22.38;3.72;;;25.30;99.90;;;;;;4934851;29;20063;-55
2022/09/19 04:50:33;;;;;;;15.30;3.60;;;25.30;99.90;;;;;;4934903;29;20023;-55
2022/09/19 04:52:59;;;;;;;21.67;5.20;;;25.30;99.90;;;;;;4934909;29;20483;-54
2022/09/19 04:55:25;;;;;;;15.85;3.70;;;25.40;99.90;;;;;;4934703;29;20043;-55
2022/09/19 04:57:51;;;;;;;16.23;4.03;;;25.30;99.90;;;;;;4934699;29;20102;-54
2022/09/19 05:00:36;;;;;;;15.57;5.50;;;25.40;99.90;;;;;;4934445;29;20426;-54
2022/09/19 05:03:07;;;;;;;18.58;4.75;;;25.40;99.90;;;;;;4947027;29;20040;-54
2022/09/19 05:05:34;;;;;;;21.63;4.63;;;25.40;99.90;;;;;;4934768;29;20024;-54
2022/09/19 05:08:00;;;;;;;19.58;4.05;;;25.40;99.90;;;;;;4934659;29;20019;-54
2022/09/19 05:10:26;;;;;;;15.98;3.90;;;25.50;99.90;;;;;;4934468;29;20039;-54
2022/09/19 05:12:52;;;;;;;13.27;3.45;;;25.40;99.90;;;;;;4934358;29;20031;-55
2022/09/19 05:15:17;;;;;;;18.92;3.85;;;25.50;99.90;;;;;;4934114;29;20140;-54
2022/09/19 05:17:43;;;;;;;19.30;3.75;;;25.40;99.90;;;;;;4934538;29;20104;-54
2022/09/19 05:20:09;;;;;;;17.55;4.10;;;25.40;99.90;;;;;;4934367;29;20436;-54
2022/09/19 05:22:35;;;;;;;17.95;4.18;;;25.40;99.90;;;;;;4934324;29;20035;-55
2022/09/19 05:25:04;;;;;;;18.52;4.10;;;25.40;99.90;;;;;;4934344;29;20088;-55
2022/09/19 05:27:36;;;;;;;14.52;3.72;;;25.50;99.90;;;;;;4934225;29;20036;-55
2022/09/19 05:30:03;;;;;;;18.85;4.60;;;25.40;99.90;;;;;;4932846;29;20057;-54
2022/09/19 05:32:29;;;;;;;16.42;4.25;;;25.40;99.90;;;;;;4934281;29;20027;-54
2022/09/19 05:34:56;;;;;;;18.58;3.70;;;25.50;99.90;;;;;;4934354;29;20369;-54
2022/09/19 05:37:23;;;;;;;12.95;3.35;;;25.40;99.90;;;;;;4934004;29;20031;-55
2022/09/19 05:39:49;;;;;;;16.60;3.58;;;25.50;99.90;;;;;;4934122;29;20024;-55
2022/09/19 05:42:14;;;;;;;19.17;4.43;;;25.50;99.90;;;;;;4934228;29;20044;-54
2022/09/19 05:44:40;;;;;;;20.00;3.58;;;25.50;99.90;;;;;;4934042;29;20024;-54
2022/09/19 05:47:06;;;;;;;15.90;4.15;;;25.50;99.90;;;;;;4933993;29;20035;-54
2022/09/19 05:49:32;;;;;;;17.77;3.88;;;25.50;99.90;;;;;;4936041;29;20051;-55
2022/09/19 05:53:51;;;;;;;12.73;4.43;;;25.40;99.90;;;;;;4940246;29;20436;-55
2022/09/19 05:54:44;;;;;;;17.92;4.60;;;25.50;99.90;;;;;;4940501;29;20059;-55
2022/09/19 05:57:10;;;;;;;18.48;4.35;;;25.50;99.90;;;;;;4938945;29;20027;-54
2022/09/19 05:59:35;;;;;;;26.23;4.80;;;25.50;99.90;;;;;;4940265;29;20023;-54
2022/09/19 06:02:01;;;;;;;15.90;4.22;;;25.40;99.90;;;;;;4954867;29;20043;-55
2022/09/19 06:04:27;;;;;;;19.92;4.18;;;25.40;99.90;;;;;;4940236;29;20023;-55
2022/09/19 06:06:53;;;;;;;25.33;5.10;;;25.40;99.90;;;;;;4940173;29;20032;-55
2022/09/19 06:09:18;;;;;;;13.85;4.18;;;25.40;99.90;;;;;;4940374;29;20034;-55
2022/09/19 06:11:44;;;;;;;22.25;3.97;;;25.40;99.90;;;;;;4940349;29;20112;-55
2022/09/19 06:14:17;;;;;;;15.50;4.30;;;25.40;99.90;;;;;;4940080;29;20071;-55
2022/09/19 06:16:43;;;;;;;11.63;4.07;;;25.40;99.90;;;;;;4940236;29;20026;-55
2022/09/19 06:19:09;;;;;;;16.13;4.32;;;25.40;99.90;;;;;;4940561;29;20031;-56
2022/09/19 06:21:34;;;;;;;13.00;3.53;;;25.40;99.90;;;;;;4938855;29;20036;-55
2022/09/19 06:24:07;;;;;;;18.60;5.50;;;25.40;99.90;;;;;;4940097;29;20379;-55
2022/09/19 06:26:33;;;;;;;17.73;4.05;;;25.40;99.90;;;;;;4940036;29;20055;-54
2022/09/19 06:29:01;;;;;;;17.85;4.00;;;25.40;99.90;;;;;;4940022;29;20122;-55
2022/09/19 06:31:27;;;;;;;13.52;4.15;;;25.40;99.90;;;;;;4939994;29;20094;-55
2022/09/19 06:33:53;;;;;;;17.27;3.92;;;25.40;99.90;;;;;;4939896;29;20027;-55
2022/09/19 06:36:19;;;;;;;13.27;4.18;;;25.40;99.90;;;;;;4954701;28;20028;-55
2022/09/19 06:38:45;;;;;;;21.60;4.55;;;25.40;99.90;;;;;;4940173;29;20027;-55
2022/09/19 06:41:12;;;;;;;15.82;4.97;;;25.40;99.90;;;;;;4939748;29;20059;-55
2022/09/19 06:43:38;;;;;;;14.93;4.10;;;25.40;99.90;;;;;;4939719;29;20042;-55
2022/09/19 06:46:05;;;;;;;13.18;3.85;;;25.40;99.90;;;;;;4939730;29;20424;-55
2022/09/19 06:48:31;;;;;;;15.77;3.53;;;25.40;99.90;;;;;;4939541;29;20035;-55
2022/09/19 06:50:56;;;;;;;15.85;4.68;;;25.40;99.90;;;;;;4939571;29;20028;-55
2022/09/19 06:53:22;;;;;;;19.40;4.40;;;25.40;99.90;;;;;;4939737;29;20032;-55
2022/09/19 06:55:48;;;;;;;17.80;6.05;;;25.40;99.90;;;;;;4939855;29;20035;-55
2022/09/19 06:58:15;;;;;;;31.52;6.10;;;25.50;99.90;;;;;;4939730;29;20031;-55
2022/09/19 07:00:44;;;;;;;16.93;4.63;;;25.40;99.90;;;;;;4938698;29;20121;-55
2022/09/19 07:03:15;;;;;;;19.90;4.68;;;25.50;99.90;;;;;;4936633;29;20038;-55
2022/09/19 07:05:44;;;;;;;13.93;3.60;;;25.40;99.90;;;;;;4936579;29;20112;-55
2022/09/19 07:08:12;;;;;;;14.15;4.10;;;25.40;99.90;;;;;;4936523;29;20020;-55
2022/09/19 07:10:38;;;;;;;14.98;4.75;;;25.50;99.90;;;;;;4936405;29;20356;-55
2022/09/19 07:13:05;;;;;;;17.73;4.03;;;25.50;99.90;;;;;;4936572;29;20108;-55
2022/09/19 07:15:34;;;;;;;16.02;4.57;;;25.40;99.90;;;;;;4936329;29;20042;-55
2022/09/19 07:18:00;;;;;;;16.13;4.10;;;25.50;99.90;;;;;;4936254;29;20159;-55
2022/09/19 07:20:27;;;;;;;13.15;3.80;;;25.50;99.90;;;;;;4936309;29;20067;-55
2022/09/19 07:23:11;;;;;;;16.65;3.67;;;25.50;99.90;;;;;;4936242;29;20040;-55
2022/09/19 07:25:37;;;;;;;15.43;3.72;;;25.50;99.90;;;;;;4936166;29;20491;-54
2022/09/19 07:28:05;;;;;;;18.30;4.90;;;25.50;99.90;;;;;;4936013;29;20047;-55
2022/09/19 07:30:33;;;;;;;14.98;4.35;;;25.60;99.90;;;;;;4936054;29;20379;-55
2022/09/19 07:32:59;;;;;;;;;;;25.60;99.90;;;;;;4936481;29;20036;-55
2022/09/19 07:35:27;;;;;;;15.48;3.85;;;25.60;99.90;;;;;;4935930;29;20001;-55
2022/09/19 07:37:54;;;;;;;14.13;4.40;;;25.70;99.90;;;;;;4936092;29;20023;-55
2022/09/19 07:40:21;;;;;;;12.65;4.53;;;25.70;99.90;;;;;;4936408;29;20551;-55
2022/09/19 07:42:46;;;;;;;23.40;5.78;;;25.70;99.90;;;;;;4935607;29;20122;-54
2022/09/19 07:45:12;;;;;;;17.20;3.97;;;25.70;99.90;;;;;;4950494;29;20111;-56
2022/09/19 07:47:46;;;;;;;14.55;3.25;;;25.60;99.90;;;;;;4935868;29;20453;-55
2022/09/19 07:50:17;;;;;;;11.40;4.22;;;25.60;99.90;;;;;;4935727;29;20095;-55
2022/09/19 07:52:46;;;;;;;15.02;3.53;;;25.60;99.90;;;;;;4935741;29;20028;-57
2022/09/19 07:55:15;;;;;;;15.73;3.53;;;25.60;99.90;;;;;;4935510;29;20087;-56
2022/09/19 07:57:51;;;;;;;17.70;3.90;;;25.70;99.90;;;;;;4935437;29;20090;-55
2022/09/19 08:00:17;;;;;;;16.70;4.05;;;25.70;99.90;;;;;;4935328;29;20052;-55
2022/09/19 08:02:43;;;;;;;10.65;3.25;;;25.70;99.90;;;;;;4935362;29;20115;-55
2022/09/19 08:05:09;;;;;;;12.60;3.42;;;25.70;99.90;;;;;;4935553;29;20062;-55
2022/09/19 08:07:35;;;;;;;19.77;5.03;;;25.70;99.90;;;;;;4935218;29;20028;-55
2022/09/19 08:10:02;;;;;;;16.45;5.82;;;25.70;99.90;;;;;;4935304;29;20110;-55
2022/09/19 08:12:28;;;;;;;;;;;25.70;99.90;;;;;;4934016;29;20098;-55
2022/09/19 08:14:56;;;;;;;15.48;3.53;;;25.80;99.90;;;;;;4935357;29;19907;-55
2022/09/19 08:17:21;;;;;;;19.13;3.78;;;25.80;99.90;;;;;;4935157;29;20078;-55
2022/09/19 08:19:47;;;;;;;13.10;3.53;;;25.80;99.90;;;;;;4935039;29;20114;-55
2022/09/19 08:22:13;;;;;;;15.23;3.72;;;25.80;99.90;;;;;;4934919;29;20443;-55
2022/09/19 08:24:39;;;;;;;19.95;4.32;;;25.90;99.90;;;;;;4934922;29;20027;-55
2022/09/19 08:27:04;;;;;;;11.27;3.90;;;25.90;99.90;;;;;;4934919;29;20050;-55
2022/09/19 08:29:32;;;;;;;22.20;4.35;;;25.90;99.90;;;;;;4934617;29;20359;-55
2022/09/19 08:32:00;;;;;;;11.93;3.47;;;25.90;99.90;;;;;;4934676;29;20031;-55
2022/09/19 08:34:26;;;;;;;16.55;4.07;;;26.00;99.90;;;;;;4934924;29;20167;-55
2022/09/19 08:36:53;;;;;;;13.50;4.05;;;26.00;99.90;;;;;;4934680;29;20488;-55
2022/09/19 08:39:19;;;;;;;10.85;3.00;;;26.00;99.90;;;;;;4934588;29;20107;-55
2022/09/19 08:42:12;;;;;;;13.13;3.67;;;26.00;99.90;;;;;;4934620;29;20454;-55
2022/09/19 08:44:40;;;;;;;15.80;4.50;;;26.00;99.90;;;;;;4934588;29;20144;-55
2022/09/19 08:47:19;;;;;;;14.02;3.65;;;26.00;99.90;;;;;;4934589;29;20027;-55
2022/09/19 08:49:51;;;;;;;16.50;4.25;;;26.10;99.90;;;;;;4934350;29;20024;-55
2022/09/19 08:52:58;;;;;;;12.52;3.88;;;26.20;99.90;;;;;;4934454;29;20035;-55
2022/09/19 08:55:27;;;;;;;10.82;3.67;;;26.20;99.90;;;;;;4933508;29;20476;-55
2022/09/19 08:58:04;;;;;;;11.52;3.95;;;26.30;99.90;;;;;;4934472;29;20039;-55
2022/09/19 09:00:36;;;;;;;10.93;3.67;;;26.30;99.90;;;;;;4934238;29;20492;-55
2022/09/19 09:03:05;;;;;;;11.38;2.92;;;26.40;99.90;;;;;;4934436;29;20054;-55
2022/09/19 09:06:08;;;;;;;9.60;3.65;;;26.40;99.90;;;;;;4934373;29;20445;-56
2022/09/19 09:08:58;;;;;;;15.07;4.25;;;26.40;99.90;;;;;;4934250;29;20432;-55
2022/09/19 09:11:35;;;;;;;21.63;5.18;;;26.50;99.90;;;;;;4934736;29;20036;-55
2022/09/19 09:14:25;;;;;;;15.38;3.97;;;26.50;99.90;;;;;;4934342;29;20082;-55
2022/09/19 09:17:03;;;;;;;14.35;4.13;;;26.50;99.90;;;;;;4924436;29;20032;-55
2022/09/19 09:19:44;;;;;;;13.95;4.32;;;26.60;99.90;;;;;;4934491;29;20042;-55
2022/09/19 09:22:25;;;;;;;14.30;3.22;;;26.60;99.90;;;;;;4934008;29;20039;-55
2022/09/19 09:25:11;;;;;;;13.15;4.05;;;26.70;99.90;;;;;;4933360;29;20106;-55
2022/09/19 09:27:56;;;;;;;12.23;3.30;;;26.80;99.90;;;;;;4934199;29;20031;-55
2022/09/19 09:30:22;;;;;;;11.32;3.00;;;26.80;99.90;;;;;;4934217;29;20031;-55
2022/09/19 09:32:57;;;;;;;11.52;3.45;;;27.00;99.90;;;;;;4934009;29;20031;-55
2022/09/19 09:35:37;;;;;;;14.00;3.03;;;27.00;99.90;;;;;;4934019;29;20046;-55
2022/09/19 09:38:19;;;;;;;14.55;3.70;;;27.10;99.90;;;;;;4934157;29;20491;-55
2022/09/19 09:44:13;;;;;;;12.88;3.65;;;27.20;99.90;;;;;;4934196;29;20071;-55
2022/09/19 09:46:54;;;;;;;14.95;3.90;;;27.30;99.90;;;;;;4934041;29;20059;-56
2022/09/19 09:49:29;;;;;;;11.80;3.20;;;27.30;99.90;;;;;;4933876;29;20439;-55
2022/09/19 09:52:25;;;;;;;11.73;2.97;;;27.40;99.90;;;;;;4933838;29;20024;-56
2022/09/19 09:58:34;;;;;;;19.23;4.80;;;27.50;99.90;;;;;;4933828;29;20039;-56
2022/09/19 10:04:40;;;;;;;14.65;4.07;;;27.70;99.90;;;;;;4933705;29;20460;-55
2022/09/19 10:07:33;;;;;;;12.60;3.22;;;27.80;99.90;;;;;;4933819;29;20134;-56
2022/09/19 10:10:04;;;;;;;18.00;3.45;;;27.80;99.90;;;;;;4933725;29;20031;-55
2022/09/19 10:12:44;;;;;;;13.60;2.95;;;27.90;99.90;;;;;;4933647;29;20028;-55
2022/09/19 10:15:16;;;;;;;13.27;3.53;;;28.00;99.90;;;;;;4933383;29;20034;-55
2022/09/19 10:17:46;;;;;;;16.00;3.08;;;28.10;99.90;;;;;;4933787;29;20035;-55
2022/09/19 10:20:22;;;;;;;14.32;3.33;;;28.10;99.90;;;;;;4932207;29;20479;-55
2022/09/19 10:22:48;;;;;;;13.95;3.42;;;28.20;99.90;;;;;;4933381;29;20036;-55
2022/09/19 10:25:16;;;;;;;10.07;2.88;;;28.20;99.90;;;;;;4933430;29;20031;-55
2022/09/19 10:27:42;;;;;;;8.63;3.20;;;28.30;99.90;;;;;;4933445;29;20498;-55
2022/09/19 10:30:19;;;;;;;13.55;3.17;;;28.30;99.90;;;;;;4933502;29;20499;-56
2022/09/19 10:32:47;;;;;;;9.43;3.03;;;28.40;99.90;;;;;;4933526;29;20091;-55
2022/09/19 10:35:28;;;;;;;10.35;2.63;;;28.50;99.90;;;;;;4933666;29;20066;-55
2022/09/19 10:37:54;;;;;;;14.73;3.22;;;28.50;99.90;;;;;;4937149;29;20058;-55
2022/09/19 10:40:20;;;;;;;7.88;2.75;;;28.50;99.90;;;;;;4935394;29;20039;-55
2022/09/19 10:42:47;;;;;;;9.80;2.75;;;28.50;99.90;;;;;;4940854;29;20031;-53
2022/09/19 10:45:16;;;;;;;;;;;28.50;99.90;;;;;;4935109;29;20408;-56
2022/09/19 10:47:42;;;;;;;10.35;2.60;;;28.60;99.90;;;;;;4930548;29;19910;-54
2022/09/19 10:50:16;;;;;;;13.43;3.80;;;28.60;99.90;;;;;;4923029;29;20392;-55
2022/09/19 10:52:44;;;;;;;7.70;2.50;;;28.80;99.90;;;;;;4918027;29;20051;-55
2022/09/19 10:55:22;;;;;;;11.52;3.00;;;28.90;99.90;;;;;;4934444;29;20452;-56
2022/09/19 10:57:58;;;;;;;13.02;2.80;;;28.90;99.90;;;;;;4936672;29;20066;-55
2022/09/19 11:00:48;;;;;;;13.57;3.70;;;28.90;99.90;;;;;;4935410;29;20515;-57
2022/09/19 11:03:39;;;;;;;12.98;2.53;;;28.90;99.90;;;;;;4931909;29;20036;-55
2022/09/19 11:06:16;;;;;;;13.65;3.17;;;29.00;99.90;;;;;;4935833;29;20034;-54
2022/09/19 11:08:52;;;;;;;11.73;2.45;;;29.00;99.90;;;;;;4920210;29;20068;-55
2022/09/19 11:11:47;;;;;;;14.38;3.20;;;29.10;99.90;;;;;;4924874;29;20431;-57
2022/09/19 11:14:31;;;;;;;13.07;2.80;;;29.20;99.90;;;;;;4931520;29;20036;-56
2022/09/19 11:17:30;;;;;;;8.40;3.20;;;29.20;99.90;;;;;;4928941;29;20448;-54
2022/09/19 11:20:30;;;;;;;12.27;2.83;;;29.20;99.90;;;;;;4936421;29;20114;-54
2022/09/19 11:23:17;;;;;;;12.63;3.03;;;29.20;99.90;;;;;;4935528;29;20716;-53
2022/09/19 11:25:48;;;;;;;7.95;2.72;;;29.20;99.90;;;;;;4932504;28;20135;-53
2022/09/19 11:28:43;;;;;;;14.32;3.88;;;29.30;99.90;;;;;;4930350;29;20023;-55
2022/09/19 11:31:36;;;;;;;14.85;3.85;;;29.40;99.90;;;;;;4932152;29;20019;-55
2022/09/19 11:34:11;;;;;;;8.93;3.00;;;29.50;99.90;;;;;;4931999;29;20115;-54
2022/09/19 11:36:49;;;;;;;10.18;2.90;;;29.60;99.90;;;;;;4946879;29;20038;-54
2022/09/19 11:39:41;;;;;;;10.15;2.75;;;29.70;99.90;;;;;;4934056;29;20424;-55
2022/09/19 11:42:35;;;;;;;9.38;3.17;;;29.80;99.90;;;;;;4933507;29;20564;-54
2022/09/19 11:45:00;;;;;;;8.68;2.35;;;29.80;99.90;;;;;;4932637;29;20080;-55
2022/09/19 11:47:35;;;;;;;9.20;2.35;;;29.90;99.90;;;;;;4929919;29;20043;-54
2022/09/19 11:50:08;;;;;;;20.88;4.22;;;29.90;99.90;;;;;;4929985;29;20046;-54
2022/09/19 11:53:17;;;;;;;17.83;3.53;;;29.90;99.90;;;;;;4933424;29;20031;-55
2022/09/19 11:56:15;;;;;;;11.77;2.53;;;29.90;99.90;;;;;;4931058;29;20043;-54
2022/09/19 11:58:42;;;;;;;13.13;2.40;;;29.80;99.90;;;;;;4933306;29;20087;-55
2022/09/19 12:01:31;;;;;;;11.45;3.10;;;29.80;99.90;;;;;;4933577;29;20441;-55
2022/09/19 12:04:23;;;;;;;14.98;3.60;;;29.90;99.90;;;;;;4933403;29;20047;-54
2022/09/19 12:07:24;;;;;;;12.80;3.00;;;29.90;99.90;;;;;;4933497;29;20016;-55
2022/09/19 12:09:55;;;;;;;9.50;2.92;;;29.90;99.90;;;;;;4924551;29;20044;-55
2022/09/19 12:12:26;;;;;;;11.10;2.80;;;29.90;99.90;;;;;;4933446;29;20031;-56
2022/09/19 12:15:35;;;;;;;14.20;2.97;;;29.90;99.90;;;;;;4930021;29;20039;-53
2022/09/19 12:18:11;;;;;;;8.93;3.05;;;29.90;99.90;;;;;;4872415;29;20040;-51
2022/09/19 12:20:49;;;;;;;13.27;3.03;;;30.00;99.90;;;;;;4925133;29;20570;-52
2022/09/19 12:26:36;;;;;;;13.38;2.30;;;29.90;99.90;;;;;;4928214;29;20530;-54
2022/09/19 12:29:34;;;;;;;17.25;3.17;;;29.80;99.90;;;;;;4928653;29;20035;-54
2022/09/19 12:32:43;;;;;;;19.58;4.82;;;29.80;99.90;;;;;;4920552;29;20039;-56
2022/09/19 12:35:33;;;;;;;8.38;2.35;;;29.80;99.90;;;;;;4903718;29;20071;-52
2022/09/19 12:38:25;;;;;;;10.02;2.58;;;29.80;99.90;;;;;;4930931;29;20126;-54
2022/09/19 12:41:16;;;;;;;13.70;2.85;;;29.70;99.90;;;;;;4929324;29;20044;-54
2022/09/19 12:44:06;;;;;;;10.07;2.42;;;29.70;99.90;;;;;;4931839;29;20058;-54
2022/09/19 12:47:04;;;;;;;17.50;2.92;;;29.70;99.90;;;;;;4930116;29;20612;-55
2022/09/19 12:49:36;;;;;;;11.52;3.05;;;29.80;99.90;;;;;;4932022;29;20251;-53
2022/09/19 12:52:23;;;;;;;8.80;2.97;;;29.90;99.90;;;;;;4932061;29;20023;-54
2022/09/19 12:54:58;;;;;;;16.10;3.10;;;30.00;99.90;;;;;;4927746;29;20398;-53
2022/09/19 12:57:30;;;;;;;11.10;2.42;;;30.10;99.90;;;;;;4932406;29;20499;-54
2022/09/19 12:59:57;;;;;;;16.80;3.30;;;30.10;99.90;;;;;;4930213;29;20047;-56
2022/09/19 13:02:30;;;;;;;18.27;3.72;;;30.10;99.90;;;;;;4931299;29;20031;-55
2022/09/19 13:05:22;;;;;;;9.55;3.22;;;30.20;99.90;;;;;;4930683;29;21053;-55
2022/09/19 13:08:05;;;;;;;11.98;3.58;;;30.20;99.90;;;;;;4930347;29;20059;-54
2022/09/19 13:10:44;;;;;;;23.70;4.90;;;30.20;99.90;;;;;;4930631;29;20456;-56
2022/09/19 13:13:13;;;;;;;14.75;6.18;;;30.30;99.90;;;;;;4931415;29;20024;-56
2022/09/19 13:15:46;;;;;;;10.73;2.63;;;30.30;99.90;;;;;;4931340;29;20020;-55
2022/09/19 13:23:51;;;;;;;13.32;3.83;;;30.30;99.90;;;;;;4929409;29;20352;-57
2022/09/19 13:26:24;;;;;;;14.40;2.92;;;30.30;99.90;;;;;;4926969;29;20075;-55
2022/09/19 13:28:55;;;;;;;11.23;3.67;;;30.30;99.90;;;;;;4929505;29;20118;-55
2022/09/19 13:31:30;;;;;;;13.30;2.85;;;30.30;99.90;;;;;;4927598;29;20024;-55